Latest Coastal Weather Observations for Wyndham Airport

IDD60701

Issued at 8:25 pm CST Tuesday 29 July 2014 (issued every 10 minutes, with the page automatically refreshed every 10 minutes)

About coastal observations | Map of coastal stations | Coastal observations for NT | Marine services | Other Formats
Station Details ID: 001006 Name: WYNDHAM AERO Lat: -15.51 Lon: 128.15 Height: 3.8 m
Data from the previous 72 hours. | See also: Recent months for locations in Northern Territory
Date/Time
CST
Temp

°C
Wind Pressure Rain
since 9am
mm
Weather Cloud Vis
km
Sea
Height
m
Swell
Dir
 
Speed
knots
Gust
knots
hPa Trend Height
m
Period
s
Dir
29/08:00pm 26.2 CALM 0 0 1014.4 - 0.0 - - - - - - -
29/07:30pm 27.6 ENE 3 4 1014.2 - 0.0 - - - - - - -
29/07:00pm 28.7 NE 5 6 1013.8 - 0.0 - - - - - - -
29/06:30pm 31.8 E 10 13 1013.5 - 0.0 - - - - - - -
29/06:00pm 32.9 E 10 14 1013.3 - 0.0 - - - - - - -
29/05:30pm 33.4 ENE 8 11 1013.1 - 0.0 - - - - - - -
29/05:00pm 33.9 ESE 9 10 1013.0 - 0.0 - - - - - - -
29/04:30pm 33.9 ENE 10 13 1012.8 - 0.0 - - - - - - -
29/04:00pm 34.2 NNE 4 8 1013.1 - 0.0 - - - - - - -
29/03:30pm 34.4 E 11 15 1013.2 - 0.0 - - - - - - -
29/03:00pm 34.0 ESE 12 17 1013.5 - 0.0 - - - - - - -
29/02:30pm 34.2 ENE 11 16 1013.7 - 0.0 - - - - - - -
29/02:00pm 34.3 NE 10 20 1014.2 - 0.0 - - - - - - -
29/01:30pm 33.5 E 9 16 1015.0 - 0.0 - - - - - - -
29/01:00pm 33.3 NNE 7 12 1015.7 - 0.0 - - - - - - -
29/12:30pm 32.1 E 12 20 1016.2 - 0.0 - - - - - - -
29/12:00pm 32.2 ENE 11 17 1016.7 - 0.0 - - - - - - -
29/11:30am 31.9 E 11 15 1017.1 - 0.0 - - - - - - -
29/11:00am 31.3 E 15 19 1017.3 - 0.0 - - - - - - -
29/10:30am 30.9 ESE 15 20 1017.5 - 0.2 - - - - - - -
29/10:00am 30.7 ESE 14 17 1017.6 - 0.2 - - - - - - -
29/09:30am 29.4 E 15 19 1017.4 - 0.2 - - - - - - -
29/09:00am 28.3 ESE 13 18 1017.3 - 0.2 - - - - - - -
29/08:30am 25.8 E 8 10 1017.1 - 0.2 - - - - - - -
29/08:00am 24.5 E 8 9 1016.9 - 0.2 - - - - - - -
29/07:30am 22.2 E 8 9 1016.7 - 0.2 - - - - - - -
29/07:00am 22.8 E 7 9 1016.3 - 0.2 - - - - - - -
29/06:30am 20.8 E 7 8 1015.9 - 0.2 - - - - - - -
29/06:00am 21.0 E 7 7 1015.6 - 0.2 - - - - - - -
29/05:30am 18.5 E 4 5 1015.5 - 0.2 - - - - - - -
29/05:00am 18.1 CALM 0 0 1015.3 - 0.2 - - - - - - -
29/04:30am 17.3 CALM 0 0 1015.1 - 0.2 - - - - - - -
29/04:00am 18.2 CALM 0 0 1014.9 - 0.2 - - - - - - -
29/03:30am 18.7 CALM 0 0 1014.9 - 0.2 - - - - - - -
29/03:00am 19.2 CALM 0 0 1014.9 - 0.2 - - - - - - -
29/02:30am 19.9 ESE 4 6 1015.0 - 0.2 - - - - - - -
29/02:00am 20.2 E 4 5 1015.1 - 0.2 - - - - - - -
29/01:30am 20.7 E 0 0 1015.4 - 0.2 - - - - - - -
29/01:00am 21.4 ENE 3 4 1015.3 - 0.2 - - - - - - -
29/12:30am 22.0 E 4 5 1015.4 - 0.2 - - - - - - -
29/12:00am 21.7 E 6 7 1015.5 - 0.2 - - - - - - -
 
Date/Time
CST
Temp

°C
Wind Pressure Rain
since 9am
mm
Weather Cloud Vis
km
Sea
Height
m
Swell
Dir
 
Speed
knots
Gust
knots
hPa Trend Height
m
Period
s
Dir
28/11:30pm 22.2 ESE 6 6 1015.6 - 0.2 - - - - - - -
28/11:00pm 21.8 ESE 4 5 1015.7 - 0.2 - - - - - - -
28/10:30pm 22.0 CALM 0 0 1015.7 - 0.2 - - - - - - -
28/10:00pm 22.2 CALM 0 0 1015.8 - 0.2 - - - - - - -
28/09:30pm 24.1 S 4 6 1015.7 - 0.2 - - - - - - -
28/09:00pm 24.4 SW 2 6 1015.4 - 0.2 - - - - - - -
28/08:30pm 25.0 CALM 0 0 1014.9 - 0.2 - - - - - - -
28/08:00pm 27.1 NW 3 6 1014.5 - 0.2 - - - - - - -
28/07:30pm 27.7 WNW 4 5 1014.1 - 0.2 - - - - - - -
28/07:00pm 29.2 N 6 8 1013.6 - 0.2 - - - - - - -
28/06:30pm 31.2 ESE 5 7 1013.3 - 0.2 - - - - - - -
28/06:00pm 32.6 SSE 8 11 1013.0 - 0.2 - - - - - - -
28/05:30pm 32.9 E 5 7 1012.9 - 0.2 - - - - - - -
28/05:00pm 33.2 ESE 5 11 1012.7 - 0.2 - - - - - - -
28/04:30pm 32.8 SSE 5 10 1012.7 - 0.2 - - - - - - -
28/04:00pm 32.5 NNE 7 9 1013.0 - 0.2 - - - - - - -
28/03:30pm 33.4 ESE 6 9 1013.4 - 0.2 - - - - - - -
28/02:30pm 32.3 N 6 10 1014.4 - 0.2 - - - - - - -
28/02:00pm 32.2 E 7 14 1015.1 - 0.2 - - - - - - -
28/01:30pm 32.5 ENE 8 13 1015.6 - 0.2 - - - - - - -
28/01:00pm 32.2 E 9 14 1016.0 - 0.2 - - - - - - -
28/12:30pm 32.0 E 12 19 1016.5 - 0.2 - - - - - - -
28/12:00pm 31.9 ESE 7 16 1017.0 - 0.0 - - - - - - -
28/11:30am 30.7 E 12 17 1017.5 - 0.0 - - - - - - -
28/11:00am 30.8 E 11 18 1017.7 - 0.0 - - - - - - -
28/10:30am 30.4 E 11 14 1017.9 - 0.0 - - - - - - -
28/10:00am 29.9 ESE 12 16 1017.8 - 0.0 - - - - - - -
28/09:30am 30.8 ESE 12 15 1017.6 - 0.0 - - - - - - -
28/09:00am 28.3 E 9 11 1017.3 - 0.0 - - - - - - -
28/08:30am 27.0 ESE 9 11 1016.8 - 0.0 - - - - - - -
28/08:00am 25.7 ESE 9 11 1016.7 - 0.0 - - - - - - -
28/07:30am 24.7 E 7 8 1016.2 - 0.0 - - - - - - -
28/07:00am 25.3 E 7 8 1016.0 - 0.0 - - - - - - -
28/06:30am 25.7 E 7 8 1015.6 - 0.0 - - - - - - -
28/06:00am 23.9 E 5 8 1015.3 - 0.0 - - - - - - -
28/05:30am 24.3 ENE 7 8 1015.2 - 0.0 - - - - - - -
28/05:00am 21.6 E 5 6 1015.0 - 0.0 - - - - - - -
28/04:30am 20.9 E 1 5 1014.9 - 0.0 - - - - - - -
28/04:00am 21.4 CALM 0 0 1014.9 - 0.0 - - - - - - -
28/03:30am 22.0 CALM 0 0 1015.0 - 0.0 - - - - - - -
28/03:00am 22.5 CALM 0 0 1015.1 - 0.0 - - - - - - -
28/02:30am 22.6 CALM 0 0 1015.1 - 0.0 - - - - - - -
28/02:00am 23.4 CALM 0 0 1015.3 - 0.0 - - - - - - -
28/01:30am 22.9 CALM 0 0 1015.5 - 0.0 - - - - - - -
28/01:00am 24.1 CALM 0 0 1015.7 - 0.0 - - - - - - -
28/12:30am 24.5 NNE 1 3 1015.8 - 0.0 - - - - - - -
28/12:00am 24.9 N 1 4 1015.9 - 0.0 - - - - - - -
 
Date/Time
CST
Temp

°C
Wind Pressure Rain
since 9am
mm
Weather Cloud Vis
km
Sea
Height
m
Swell
Dir
 
Speed
knots
Gust
knots
hPa Trend Height
m
Period
s
Dir
27/11:30pm 25.4 N 3 4 1016.1 - 0.0 - - - - - - -
27/11:00pm 26.2 W 1 4 1016.2 - 0.0 - - - - - - -
27/10:30pm 26.6 SSW 7 8 1016.4 - 0.0 - - - - - - -
27/10:00pm 26.6 SSW 6 7 1016.2 - 0.0 - - - - - - -
27/09:30pm 26.6 SSW 5 6 1016.2 - 0.0 - - - - - - -
27/09:00pm 26.8 WNW 4 6 1015.9 - 0.0 - - - - - - -
27/08:30pm 26.9 NNW 5 7 1015.6 - 0.0 - - - - - - -
27/08:00pm 26.8 NNW 6 7 1015.2 - 0.0 - - - - - - -
27/07:30pm 28.3 NW 4 6 1014.9 - 0.0 - - - - - - -
27/07:00pm 29.5 CALM 0 0 1014.6 - 0.0 - - - - - - -
27/06:30pm 29.9 ENE 3 6 1014.3 - 0.0 - - - - - - -
27/06:00pm 31.3 E 5 8 1014.0 - 0.0 - - - - - - -
27/05:30pm 31.7 ENE 8 11 1013.8 - 0.0 - - - - - - -
27/05:00pm 31.4 E 8 11 1013.6 - 0.0 - - - - - - -
27/04:30pm 31.8 E 8 13 1013.4 - 0.0 - - - - - - -
27/04:00pm 32.6 E 7 12 1013.6 - 0.0 - - - - - - -
27/03:30pm 31.8 E 11 15 1013.9 - 0.0 - - - - - - -
27/03:00pm 32.3 ENE 9 16 1014.2 - 0.0 - - - - - - -
27/02:30pm 33.0 E 10 14 1014.7 - 0.0 - - - - - - -
27/02:00pm 32.4 ESE 13 15 1015.1 - 0.0 - - - - - - -
27/01:30pm 32.2 E 13 18 1015.7 - 0.0 - - - - - - -
27/01:00pm 31.9 ENE 12 17 1016.4 - 0.0 - - - - - - -
27/12:30pm 32.3 E 13 18 1017.0 - 0.0 - - - - - - -
27/12:00pm 31.3 E 14 21 1017.4 - 0.0 - - - - - - -
27/11:30am 31.1 E 14 22 1017.9 - 0.0 - - - - - - -
27/11:00am 30.3 ENE 15 21 1018.3 - 0.0 - - - - - - -
27/10:30am 29.9 ENE 12 17 1018.5 - 0.0 - - - - - - -
27/10:00am 29.7 E 13 19 1018.4 - 0.0 - - - - - - -
27/09:30am 27.5 E 10 12 1018.3 - 0.0 - - - - - - -
27/09:00am 26.8 E 7 9 1018.0 - 0.0 - - - - - - -
27/08:30am 26.0 E 8 10 1017.6 - 0.0 - - - - - - -
27/08:00am 25.0 E 8 10 1017.3 - 0.0 - - - - - - -
27/07:30am 22.7 E 7 9 1017.1 - 0.0 - - - - - - -
27/07:00am 24.3 E 7 8 1016.8 - 0.0 - - - - - - -
27/06:30am 21.6 E 4 5 1016.5 - 0.0 - - - - - - -
27/06:00am 21.7 NE 2 5 1016.3 - 0.0 - - - - - - -
27/05:30am 21.2 CALM 0 0 1016.1 - 0.0 - - - - - - -
27/05:00am 20.1 CALM 0 0 1016.1 - 0.0 - - - - - - -
27/04:30am 20.0 CALM 0 0 1016.1 - 0.0 - - - - - - -
27/04:00am 20.2 CALM 0 0 1016.2 - 0.0 - - - - - - -
27/03:30am 21.0 N 2 5 1016.3 - 0.0 - - - - - - -
27/03:00am 21.9 S 6 7 1016.3 - 0.0 - - - - - - -
27/02:30am 20.0 SSW 4 6 1016.4 - 0.0 - - - - - - -
27/02:00am 19.2 CALM 0 3 1016.5 - 0.0 - - - - - - -
27/01:30am 19.9 CALM 0 0 1016.5 - 0.0 - - - - - - -
27/01:00am 20.5 CALM 0 0 1016.8 - 0.0 - - - - - - -
27/12:30am 20.8 CALM 0 4 1017.0 - 0.0 - - - - - - -
27/12:00am 19.8 N 4 5 1017.1 - 0.0 - - - - - - -
 
Date/Time
CST
Temp

°C
Wind Pressure Rain
since 9am
mm
Weather Cloud Vis
km
Sea
Height
m
Swell
Dir
 
Speed
knots
Gust
knots
hPa Trend Height
m
Period
s
Dir
26/11:30pm 21.0 ENE 3 5 1017.3 - 0.0 - - - - - - -
26/11:00pm 20.0 E 4 5 1017.4 - 0.0 - - - - - - -
26/10:30pm 20.9 SSE 3 4 1017.4 - 0.0 - - - - - - -
26/10:00pm 22.3 SW 2 4 1017.4 - 0.0 - - - - - - -

Other Formats:

Comma delimited format used in spreadsheet applications
http://www.bom.gov.au/fwo/IDD60701/IDD60701.95214.axf

JavaScript Object Notation format (JSON) in row-major order
http://www.bom.gov.au/fwo/IDD60701/IDD60701.95214.json